createdAt,value
2019-04-01T00:03:55.459Z,10.30
2019-04-01T00:08:58.846Z,11.73
2019-04-01T00:14:02.247Z,11.40
2019-04-01T00:19:05.718Z,11.67
2019-04-01T00:24:09.119Z,11.20
2019-04-01T00:29:12.515Z,10.33
2019-04-01T00:34:15.916Z,10.30
2019-04-01T00:39:19.322Z,10.10
2019-04-01T00:44:22.692Z,9.70
2019-04-01T00:49:26.066Z,9.50
2019-04-01T00:54:29.463Z,10.83
2019-04-01T00:59:32.881Z,10.53
2019-04-01T01:04:36.273Z,9.43
2019-04-01T01:09:39.655Z,11.67
2019-04-01T01:14:43.107Z,9.03
2019-04-01T01:19:46.488Z,9.93
2019-04-01T01:24:49.871Z,9.80
2019-04-01T01:29:53.266Z,10.50
2019-04-01T01:34:56.652Z,10.30
2019-04-01T01:40:00.039Z,10.50
2019-04-01T01:45:03.900Z,9.80
2019-04-01T01:50:07.664Z,11.30
2019-04-01T01:55:11.183Z,9.80
2019-04-01T02:00:16.064Z,12.07
2019-04-01T02:05:19.453Z,12.70
2019-04-01T02:10:22.840Z,10.13
2019-04-01T02:15:26.230Z,12.77
2019-04-01T02:20:29.628Z,9.30
2019-04-01T02:25:33.031Z,11.00
2019-04-01T02:30:36.442Z,11.20
2019-04-01T02:35:39.817Z,10.03
2019-04-01T02:40:43.199Z,9.07
2019-04-01T02:45:46.621Z,10.80
2019-04-01T02:50:50.022Z,9.20
2019-04-01T02:55:53.410Z,11.97
2019-04-01T03:00:56.879Z,9.10
2019-04-01T03:06:00.277Z,11.07
2019-04-01T03:11:03.819Z,10.00
2019-04-01T03:16:07.189Z,9.50
2019-04-01T03:21:10.608Z,11.33
2019-04-01T03:26:13.980Z,10.10
2019-04-01T03:31:17.365Z,10.17
2019-04-01T03:36:20.751Z,8.80
2019-04-01T03:41:24.129Z,7.40
2019-04-01T03:46:27.531Z,9.47
2019-04-01T03:51:30.981Z,7.27
2019-04-01T03:56:34.437Z,9.37
2019-04-01T04:01:37.835Z,10.37
2019-04-01T04:06:41.222Z,8.20
2019-04-01T04:11:44.597Z,9.67
2019-04-01T04:16:47.980Z,7.97
2019-04-01T04:21:51.372Z,8.93
2019-04-01T04:26:54.764Z,8.17
2019-04-01T04:31:58.119Z,9.60
2019-04-01T04:37:01.511Z,9.77
2019-04-01T04:42:04.891Z,7.93
2019-04-01T04:47:08.284Z,8.40
2019-04-01T04:52:11.666Z,9.27
2019-04-01T04:57:15.068Z,9.27
2019-04-01T05:02:18.450Z,7.83
2019-04-01T05:07:21.846Z,8.70
2019-04-01T05:12:25.227Z,9.07
2019-04-01T05:17:28.632Z,7.97
2019-04-01T05:22:32.494Z,7.60
2019-04-01T05:27:37.123Z,8.30
2019-04-01T05:32:41.315Z,7.07
2019-04-01T05:37:45.544Z,8.67
2019-04-01T05:42:48.970Z,9.40
2019-04-01T05:47:54.019Z,6.67
2019-04-01T05:52:57.503Z,7.70
2019-04-01T05:58:01.222Z,8.10
2019-04-01T06:03:04.784Z,7.60
2019-04-01T06:08:08.643Z,7.60
2019-04-01T06:13:12.413Z,6.87
2019-04-01T06:18:15.937Z,8.37
2019-04-01T06:23:19.383Z,9.10
2019-04-01T06:28:22.831Z,7.50
2019-04-01T06:33:26.295Z,5.37
2019-04-01T06:38:29.683Z,7.00
2019-04-01T06:43:33.067Z,6.37
2019-04-01T06:48:36.471Z,6.47
2019-04-01T06:53:39.864Z,7.30
2019-04-01T06:58:43.261Z,7.77
2019-04-01T07:03:46.723Z,8.50
2019-04-01T07:08:50.323Z,6.33
2019-04-01T07:13:53.774Z,6.27
2019-04-01T07:18:57.545Z,7.20
2019-04-01T07:24:00.948Z,6.33
2019-04-01T07:29:04.406Z,6.27
2019-04-01T07:34:07.799Z,8.03
2019-04-01T07:39:11.201Z,6.83
2019-04-01T07:44:14.588Z,6.83
2019-04-01T07:49:17.983Z,6.90
2019-04-01T07:54:21.464Z,6.83
2019-04-01T07:59:25.208Z,7.67
2019-04-01T08:04:28.595Z,7.00
2019-04-01T08:09:31.995Z,7.10
2019-04-01T08:14:35.457Z,7.70
2019-04-01T08:19:39.591Z,7.70
2019-04-01T08:24:42.981Z,6.40
2019-04-01T08:29:46.544Z,7.47
2019-04-01T08:34:50.210Z,8.43
2019-04-01T08:39:53.600Z,7.43
2019-04-01T08:44:56.999Z,7.53
2019-04-01T08:50:00.569Z,7.03
2019-04-01T08:55:06.650Z,7.10
2019-04-01T09:00:10.275Z,7.57
2019-04-01T09:05:13.804Z,6.23
2019-04-01T09:10:17.273Z,8.30
2019-04-01T09:15:20.654Z,8.63
2019-04-01T09:20:24.051Z,8.37
2019-04-01T09:25:27.443Z,7.53
2019-04-01T09:30:30.850Z,7.20
2019-04-01T09:35:34.268Z,7.77
2019-04-01T09:40:37.667Z,8.70
2019-04-01T09:45:41.072Z,9.10
2019-04-01T09:50:45.127Z,9.10
2019-04-01T09:55:48.615Z,8.40
2019-04-01T10:00:53.453Z,7.67
2019-04-01T10:05:57.063Z,9.17
2019-04-01T10:11:00.525Z,7.73
2019-04-01T10:16:03.967Z,7.60
2019-04-01T10:21:07.375Z,8.30
2019-04-01T10:26:10.755Z,9.57
2019-04-01T10:31:14.143Z,8.97
2019-04-01T10:36:17.573Z,8.10
2019-04-01T10:41:20.955Z,8.33
2019-04-01T10:46:24.370Z,9.37
2019-04-01T10:51:27.743Z,8.07
2019-04-01T10:56:31.135Z,9.10
2019-04-01T11:01:34.608Z,8.77
2019-04-01T11:06:38.101Z,9.43
2019-04-01T11:11:41.511Z,7.77
2019-04-01T11:16:46.083Z,9.90
2019-04-01T11:21:49.551Z,8.60
2019-04-01T11:26:52.939Z,8.70
2019-04-01T11:31:56.395Z,9.03
2019-04-01T11:36:59.757Z,8.50
2019-04-01T11:42:03.364Z,8.20
2019-04-01T11:47:06.872Z,8.77
2019-04-01T11:52:10.388Z,8.67
2019-04-01T11:57:14.074Z,9.10
2019-04-01T12:02:17.523Z,8.90
2019-04-01T12:07:20.992Z,8.80
2019-04-01T12:12:24.618Z,10.60
2019-04-01T12:17:28.060Z,9.30
2019-04-01T12:22:31.527Z,10.30
2019-04-01T12:27:34.924Z,8.50
2019-04-01T12:32:38.334Z,10.23
2019-04-01T12:37:41.738Z,9.50
2019-04-01T12:42:46.590Z,10.90
2019-04-01T12:47:50.364Z,10.90
2019-04-01T12:52:53.763Z,8.87
2019-04-01T12:57:57.338Z,10.30
2019-04-01T13:03:00.815Z,9.80
2019-04-01T13:08:04.231Z,9.93
2019-04-01T13:13:07.628Z,10.07
2019-04-01T13:18:11.052Z,10.50
2019-04-01T13:23:14.522Z,9.97
2019-04-01T13:28:17.973Z,7.90
2019-04-01T13:33:21.420Z,10.07
2019-04-01T13:38:24.833Z,12.33
2019-04-01T13:43:28.227Z,10.27
2019-04-01T13:48:31.658Z,10.47
2019-04-01T13:53:35.056Z,8.90
2019-04-01T13:58:39.311Z,9.60
2019-04-01T14:03:42.800Z,8.30
2019-04-01T14:08:46.184Z,9.10
2019-04-01T14:13:49.626Z,9.20
2019-04-01T14:18:53.070Z,7.93
2019-04-01T14:23:56.446Z,9.80
2019-04-01T14:28:59.831Z,9.53
2019-04-01T14:34:06.188Z,9.80
2019-04-01T14:39:08.827Z,10.43
2019-04-01T14:44:12.184Z,9.00
2019-04-01T14:49:16.164Z,7.50
2019-04-01T14:54:20.836Z,10.93
2019-04-01T14:59:24.395Z,7.00
2019-04-01T15:04:27.831Z,7.90
2019-04-01T15:09:31.331Z,8.17
2019-04-01T15:14:34.749Z,6.67
2019-04-01T15:19:38.140Z,7.90
2019-04-01T15:24:41.540Z,9.10
2019-04-01T15:29:44.999Z,8.30
2019-04-01T15:34:48.397Z,8.03
2019-04-01T15:39:51.795Z,8.83
2019-04-01T15:44:55.190Z,9.97
2019-04-01T15:49:58.575Z,8.30
2019-04-01T15:55:02.559Z,6.93
2019-04-01T16:00:06.996Z,8.30
2019-04-01T16:05:10.563Z,7.73
2019-04-01T16:10:13.975Z,8.00
2019-04-01T16:15:17.427Z,7.63
2019-04-01T16:20:20.815Z,9.07
2019-04-01T16:25:24.196Z,7.60
2019-04-01T16:30:28.109Z,9.30
2019-04-01T16:35:31.747Z,8.57
2019-04-01T16:40:35.131Z,8.17
2019-04-01T16:45:38.523Z,9.07
2019-04-01T16:50:41.922Z,7.73
2019-04-01T16:55:45.379Z,9.10
2019-04-01T17:00:48.781Z,7.20
2019-04-01T17:05:52.165Z,6.43
2019-04-01T17:10:55.589Z,6.70
2019-04-01T17:16:01.486Z,7.13
2019-04-01T17:21:04.873Z,6.90
2019-04-01T17:26:08.359Z,6.40
2019-04-01T17:31:11.777Z,7.17
2019-04-01T17:36:15.916Z,6.77
2019-04-01T17:41:19.412Z,6.83
2019-04-01T17:46:26.222Z,7.30
2019-04-01T17:51:27.919Z,6.90
2019-04-01T17:56:31.311Z,6.83
2019-04-01T18:01:34.715Z,6.67
2019-04-01T18:06:38.743Z,6.70
2019-04-01T18:11:42.163Z,5.80
2019-04-01T18:16:45.548Z,6.10
2019-04-01T18:21:48.940Z,6.67
2019-04-01T18:26:52.425Z,6.10
2019-04-01T18:31:58.890Z,5.67
2019-04-01T18:37:00.914Z,5.23
2019-04-01T18:42:04.407Z,6.30
2019-04-01T18:47:07.936Z,6.67
2019-04-01T18:52:11.420Z,6.53
2019-04-01T18:57:14.889Z,6.03
2019-04-01T19:02:18.433Z,5.70
2019-04-01T19:07:22.512Z,6.00
2019-04-01T19:12:26.592Z,5.60
2019-04-01T19:17:31.000Z,6.27
2019-04-01T19:22:34.395Z,5.63
2019-04-01T19:27:37.863Z,6.33
2019-04-01T19:32:41.270Z,5.73
2019-04-01T19:37:44.658Z,5.63
2019-04-01T19:42:48.063Z,5.50
2019-04-01T19:47:51.460Z,3.90
2019-04-01T19:52:55.433Z,5.40
2019-04-01T19:57:59.127Z,6.33
2019-04-01T20:03:02.521Z,5.57
2019-04-01T20:08:05.915Z,6.30
2019-04-01T20:13:10.287Z,4.57
2019-04-01T20:18:14.007Z,4.30
2019-04-01T20:23:17.400Z,5.60
2019-04-01T20:28:20.787Z,4.20
2019-04-01T20:33:24.203Z,4.47
2019-04-01T20:38:27.779Z,5.20
2019-04-01T20:43:31.171Z,4.30
2019-04-01T20:48:34.560Z,4.67
2019-04-01T20:53:38.013Z,4.40
2019-04-01T20:58:42.181Z,4.30
2019-04-01T21:03:45.851Z,4.60
2019-04-01T21:08:49.251Z,5.10
2019-04-01T21:13:52.635Z,4.40
2019-04-01T21:18:56.021Z,4.67
2019-04-01T21:23:59.915Z,3.60
2019-04-01T21:29:03.366Z,3.57
2019-04-01T21:34:07.830Z,4.43
2019-04-01T21:39:11.319Z,3.63
2019-04-01T21:44:14.713Z,4.70
2019-04-01T21:49:18.105Z,4.57
2019-04-01T21:54:21.495Z,4.47
2019-04-01T21:59:24.937Z,4.50
2019-04-01T22:04:28.334Z,4.60
2019-04-01T22:09:31.807Z,4.83
2019-04-01T22:14:35.188Z,4.70
2019-04-01T22:19:38.644Z,4.40
2019-04-01T22:24:42.032Z,5.27
2019-04-01T22:29:45.407Z,4.40
2019-04-01T22:34:48.787Z,3.67
2019-04-01T22:39:52.159Z,3.50
2019-04-01T22:44:55.538Z,3.83
2019-04-01T22:49:58.923Z,4.23
2019-04-01T22:55:02.377Z,4.10
2019-04-01T23:00:05.995Z,4.60
2019-04-01T23:05:09.503Z,4.10
2019-04-01T23:10:12.956Z,4.00
2019-04-01T23:15:16.568Z,3.97
2019-04-01T23:20:19.952Z,2.90
2019-04-01T23:25:23.350Z,4.37
2019-04-01T23:30:26.723Z,4.03
2019-04-01T23:35:30.110Z,4.47
2019-04-01T23:40:33.499Z,3.60
2019-04-01T23:45:36.887Z,3.57
2019-04-01T23:50:40.280Z,4.30
2019-04-01T23:55:43.681Z,4.10
